createdAt,value
2018-07-13T00:00:44.511Z,78.46
2018-07-13T00:01:44.660Z,79.13
2018-07-13T00:02:44.795Z,78.94
2018-07-13T00:03:44.937Z,79.13
2018-07-13T00:04:45.073Z,78.94
2018-07-13T00:05:45.214Z,78.85
2018-07-13T00:06:45.360Z,79.03
2018-07-13T00:07:45.505Z,78.65
2018-07-13T00:08:45.644Z,78.85
2018-07-13T00:09:45.785Z,79.13
2018-07-13T00:10:45.927Z,78.94
2018-07-13T00:11:46.066Z,79.13
2018-07-13T00:12:46.208Z,78.85
2018-07-13T00:13:46.344Z,78.75
2018-07-13T00:14:46.484Z,78.56
2018-07-13T00:15:46.620Z,79.23
2018-07-13T00:16:46.767Z,79.23
2018-07-13T00:17:46.904Z,79.23
2018-07-13T00:18:47.038Z,79.33
2018-07-13T00:19:47.172Z,79.23
2018-07-13T00:20:47.313Z,79.23
2018-07-13T00:21:47.450Z,79.33
2018-07-13T00:22:47.586Z,79.23
2018-07-13T00:23:47.722Z,79.03
2018-07-13T00:24:47.964Z,79.43
2018-07-13T00:25:48.017Z,79.28
2018-07-13T00:26:48.160Z,79.43
2018-07-13T00:27:48.306Z,79.19
2018-07-13T00:28:48.443Z,79.38
2018-07-13T00:29:48.594Z,79.19
2018-07-13T00:30:48.734Z,79.28
2018-07-13T00:31:48.876Z,79.28
2018-07-13T00:32:49.019Z,79.67
2018-07-13T00:33:49.154Z,79.67
2018-07-13T00:34:49.301Z,79.86
2018-07-13T00:35:49.448Z,79.77
2018-07-13T00:36:49.580Z,79.67
2018-07-13T00:37:49.745Z,79.86
2018-07-13T00:38:49.907Z,79.58
2018-07-13T00:39:50.057Z,79.86
2018-07-13T00:40:50.193Z,79.67
2018-07-13T00:41:50.330Z,79.67
2018-07-13T00:42:50.460Z,79.48
2018-07-13T00:43:50.605Z,79.58
2018-07-13T00:44:50.742Z,79.28
2018-07-13T00:45:50.873Z,79.48
2018-07-13T00:46:51.023Z,79.58
2018-07-13T00:47:51.155Z,78.81
2018-07-13T00:48:51.297Z,79.19
2018-07-13T00:49:51.432Z,79.28
2018-07-13T00:50:51.574Z,79.58
2018-07-13T00:51:51.719Z,79.58
2018-07-13T00:52:51.963Z,79.38
2018-07-13T00:53:52.090Z,79.67
2018-07-13T00:54:52.099Z,79.86
2018-07-13T00:55:52.243Z,79.77
2018-07-13T00:56:52.383Z,79.77
2018-07-13T00:57:52.523Z,79.77
2018-07-13T00:58:52.654Z,79.38
2018-07-13T00:59:52.791Z,79.77
2018-07-13T01:00:52.937Z,80.25
2018-07-13T01:01:53.078Z,80.25
2018-07-13T01:02:53.222Z,81.02
2018-07-13T01:03:53.360Z,80.92
2018-07-13T01:04:53.521Z,80.92
2018-07-13T01:05:53.654Z,80.63
2018-07-13T01:06:53.793Z,80.44
2018-07-13T01:07:53.933Z,80.44
2018-07-13T01:08:54.070Z,80.44
2018-07-13T01:09:54.201Z,80.25
2018-07-13T01:10:54.331Z,80.83
2018-07-13T01:11:54.466Z,80.63
2018-07-13T01:12:54.603Z,80.73
2018-07-13T01:13:54.733Z,81.02
2018-07-13T01:14:54.865Z,80.92
2018-07-13T01:15:55.013Z,81.46
2018-07-13T01:16:55.148Z,81.70
2018-07-13T01:17:55.271Z,81.30
2018-07-13T01:18:56.318Z,81.56
2018-07-13T01:19:55.546Z,82.14
2018-07-13T01:20:55.715Z,82.23
2018-07-13T01:21:55.810Z,82.04
2018-07-13T01:22:55.952Z,82.42
2018-07-13T01:23:56.091Z,82.14
2018-07-13T01:24:56.229Z,82.23
2018-07-13T01:25:56.377Z,81.65
2018-07-13T01:26:56.515Z,81.84
2018-07-13T01:27:56.702Z,81.94
2018-07-13T01:28:56.849Z,82.04
2018-07-13T01:29:56.989Z,82.23
2018-07-13T01:30:57.125Z,82.52
2018-07-13T01:31:57.263Z,81.37
2018-07-13T01:32:57.404Z,81.56
2018-07-13T01:33:57.550Z,82.04
2018-07-13T01:34:57.688Z,81.46
2018-07-13T01:35:57.828Z,82.23
2018-07-13T01:36:57.969Z,82.04
2018-07-13T01:37:58.115Z,81.84
2018-07-13T01:38:58.262Z,82.61
2018-07-13T01:39:58.400Z,82.57
2018-07-13T01:40:58.543Z,83.06
2018-07-13T01:41:58.683Z,82.86
2018-07-13T01:42:58.819Z,82.86
2018-07-13T01:43:58.957Z,82.86
2018-07-13T01:44:59.105Z,82.76
2018-07-13T01:45:59.242Z,82.86
2018-07-13T01:46:59.381Z,82.48
2018-07-13T01:47:59.523Z,82.48
2018-07-13T01:48:59.653Z,82.48
2018-07-13T01:49:59.796Z,82.19
2018-07-13T01:50:59.928Z,81.99
2018-07-13T01:52:00.066Z,82.42
2018-07-13T01:53:00.201Z,81.84
2018-07-13T01:54:00.342Z,82.38
2018-07-13T01:55:00.475Z,81.90
2018-07-13T01:56:00.615Z,82.04
2018-07-13T01:57:00.755Z,82.23
2018-07-13T01:58:00.893Z,82.32
2018-07-13T01:59:01.047Z,81.56
2018-07-13T02:00:01.217Z,81.84
2018-07-13T02:01:01.355Z,81.84
2018-07-13T02:02:01.493Z,81.37
2018-07-13T02:03:01.649Z,81.75
2018-07-13T02:04:01.787Z,81.46
2018-07-13T02:05:01.928Z,82.04
2018-07-13T02:06:02.064Z,81.75
2018-07-13T02:07:02.201Z,81.94
2018-07-13T02:08:02.344Z,81.75
2018-07-13T02:09:02.498Z,81.84
2018-07-13T02:10:02.617Z,81.52
2018-07-13T02:11:02.756Z,82.29
2018-07-13T02:12:02.890Z,82.96
2018-07-13T02:13:03.039Z,83.69
2018-07-13T02:14:03.169Z,83.30
2018-07-13T02:15:03.307Z,83.40
2018-07-13T02:16:03.445Z,83.34
2018-07-13T02:17:03.585Z,83.06
2018-07-13T02:18:03.752Z,82.92
2018-07-13T02:19:03.893Z,83.06
2018-07-13T02:20:04.034Z,82.86
2018-07-13T02:21:04.169Z,83.40
2018-07-13T02:22:04.296Z,83.15
2018-07-13T02:23:04.428Z,83.92
2018-07-13T02:24:04.572Z,83.15
2018-07-13T02:25:04.711Z,83.15
2018-07-13T02:26:04.869Z,82.96
2018-07-13T02:27:04.987Z,83.25
2018-07-13T02:28:05.124Z,82.96
2018-07-13T02:29:05.253Z,82.67
2018-07-13T02:30:05.391Z,82.67
2018-07-13T02:31:05.534Z,83.06
2018-07-13T02:32:05.669Z,82.48
2018-07-13T02:33:05.799Z,82.76
2018-07-13T02:34:05.939Z,82.09
2018-07-13T02:35:06.089Z,82.19
2018-07-13T02:36:06.226Z,82.29
2018-07-13T02:37:06.364Z,82.48
2018-07-13T02:38:06.512Z,81.61
2018-07-13T02:39:06.741Z,81.71
2018-07-13T02:40:06.779Z,81.99
2018-07-13T02:41:06.919Z,81.99
2018-07-13T02:42:07.061Z,82.09
2018-07-13T02:43:07.201Z,81.90
2018-07-13T02:44:07.343Z,81.90
2018-07-13T02:45:07.483Z,81.81
2018-07-13T02:46:07.622Z,82.09
2018-07-13T02:47:07.772Z,82.19
2018-07-13T02:48:07.910Z,82.09
2018-07-13T02:49:08.058Z,82.09
2018-07-13T02:50:08.195Z,81.99
2018-07-13T02:51:08.333Z,82.38
2018-07-13T02:52:08.474Z,81.32
2018-07-13T02:53:08.616Z,82.19
2018-07-13T02:54:08.750Z,82.19
2018-07-13T02:55:08.887Z,81.90
2018-07-13T02:56:09.032Z,82.09
2018-07-13T02:57:09.170Z,81.99
2018-07-13T02:58:09.308Z,81.99
2018-07-13T02:59:09.443Z,81.32
2018-07-13T03:00:09.587Z,81.99
2018-07-13T03:01:09.728Z,82.38
2018-07-13T03:02:09.873Z,82.48
2018-07-13T03:03:10.023Z,82.29
2018-07-13T03:04:10.227Z,81.32
2018-07-13T03:05:10.310Z,81.90
2018-07-13T03:06:10.444Z,81.32
2018-07-13T03:07:10.583Z,81.52
2018-07-13T03:08:10.725Z,82.09
2018-07-13T03:09:10.864Z,82.09
2018-07-13T03:10:11.009Z,81.42
2018-07-13T03:11:11.147Z,81.61
2018-07-13T03:12:11.294Z,81.90
2018-07-13T03:13:11.431Z,81.81
2018-07-13T03:14:11.608Z,81.71
2018-07-13T03:15:11.735Z,81.52
2018-07-13T03:16:11.876Z,81.42
2018-07-13T03:17:12.022Z,81.23
2018-07-13T03:18:12.171Z,81.71
2018-07-13T03:19:12.310Z,81.81
2018-07-13T03:20:12.445Z,81.52
2018-07-13T03:21:12.596Z,81.52
2018-07-13T03:22:12.760Z,81.61
2018-07-13T03:23:12.871Z,81.42
2018-07-13T03:24:13.038Z,82.48
2018-07-13T03:25:13.180Z,81.71
2018-07-13T03:26:13.313Z,82.19
2018-07-13T03:27:13.460Z,82.09
2018-07-13T03:28:13.602Z,82.38
2018-07-13T03:29:13.739Z,81.99
2018-07-13T03:30:13.880Z,81.42
2018-07-13T03:31:14.016Z,82.29
2018-07-13T03:32:14.162Z,82.29
2018-07-13T03:33:14.297Z,81.99
2018-07-13T03:34:14.435Z,82.09
2018-07-13T03:35:14.584Z,82.57
2018-07-13T03:36:14.719Z,82.09
2018-07-13T03:37:14.859Z,81.90
2018-07-13T03:38:15.011Z,82.09
2018-07-13T03:39:15.132Z,82.29
2018-07-13T03:40:15.281Z,81.90
2018-07-13T03:41:15.425Z,82.19
2018-07-13T03:42:15.582Z,81.99
2018-07-13T03:43:15.725Z,82.43
2018-07-13T03:44:15.862Z,82.09
2018-07-13T03:45:15.996Z,82.57
2018-07-13T03:46:16.134Z,81.96
2018-07-13T03:47:16.269Z,82.43
2018-07-13T03:48:16.457Z,81.86
2018-07-13T03:49:16.535Z,82.24
2018-07-13T03:50:16.682Z,82.43
2018-07-13T03:51:16.815Z,82.43
2018-07-13T03:52:16.958Z,81.86
2018-07-13T03:53:17.098Z,82.05
2018-07-13T03:54:17.257Z,82.34
2018-07-13T03:55:17.389Z,82.05
2018-07-13T03:56:17.532Z,82.15
2018-07-13T03:57:17.685Z,81.48
2018-07-13T03:58:17.818Z,81.38
2018-07-13T03:59:17.961Z,81.57
2018-07-13T04:00:18.100Z,81.38
2018-07-13T04:01:18.232Z,81.28
2018-07-13T04:02:18.370Z,81.38
2018-07-13T04:03:18.512Z,81.28
2018-07-13T04:04:18.650Z,80.99
2018-07-13T04:05:18.788Z,80.80
2018-07-13T04:06:18.931Z,80.99
2018-07-13T04:07:19.072Z,81.38
2018-07-13T04:08:19.216Z,81.19
2018-07-13T04:09:19.358Z,81.57
2018-07-13T04:10:19.501Z,81.38
2018-07-13T04:11:19.637Z,81.57
2018-07-13T04:12:19.779Z,81.28
2018-07-13T04:13:19.916Z,81.67
2018-07-13T04:14:20.070Z,81.76
2018-07-13T04:15:20.211Z,81.76
2018-07-13T04:16:20.348Z,81.57
2018-07-13T04:17:20.492Z,81.57
2018-07-13T04:18:20.633Z,81.38
2018-07-13T04:19:20.785Z,81.38
2018-07-13T04:20:20.921Z,81.67
2018-07-13T04:21:21.058Z,81.38
2018-07-13T04:22:21.198Z,81.86
2018-07-13T04:23:21.349Z,81.86
2018-07-13T04:24:21.466Z,81.48
2018-07-13T04:25:21.600Z,82.15
2018-07-13T04:26:21.768Z,81.96
2018-07-13T04:27:21.909Z,81.86
2018-07-13T04:28:22.052Z,82.34
2018-07-13T04:29:22.186Z,82.05
2018-07-13T04:30:22.320Z,82.53
2018-07-13T04:31:22.457Z,83.11
2018-07-13T04:32:22.596Z,82.82
2018-07-13T04:33:22.761Z,83.49
2018-07-13T04:34:22.972Z,83.30
2018-07-13T04:35:23.033Z,82.82
2018-07-13T04:36:23.859Z,83.49
2018-07-13T04:37:23.420Z,82.82
2018-07-13T04:38:23.474Z,82.82
2018-07-13T04:39:23.632Z,83.20
2018-07-13T04:40:23.789Z,82.92
2018-07-13T04:41:23.932Z,82.92
2018-07-13T04:42:24.075Z,82.63
2018-07-13T04:43:24.218Z,82.73
2018-07-13T04:44:24.350Z,82.63
2018-07-13T04:45:24.491Z,82.63
2018-07-13T04:46:24.631Z,82.53
2018-07-13T04:47:24.788Z,82.73
2018-07-13T04:48:24.923Z,82.73
2018-07-13T04:49:25.066Z,82.53
2018-07-13T04:50:25.207Z,82.92
2018-07-13T04:51:25.392Z,82.92
2018-07-13T04:52:25.557Z,83.01
2018-07-13T04:53:25.698Z,82.48
2018-07-13T04:54:25.885Z,82.73
2018-07-13T04:55:26.023Z,82.76
2018-07-13T04:56:26.170Z,82.76
2018-07-13T04:57:26.305Z,82.82
2018-07-13T04:58:26.439Z,83.06
2018-07-13T04:59:26.577Z,83.20
2018-07-13T05:00:26.716Z,82.82
2018-07-13T05:01:26.853Z,83.20
2018-07-13T05:02:27.000Z,83.40
2018-07-13T05:03:27.149Z,84.03
2018-07-13T05:04:27.288Z,84.70
2018-07-13T05:05:27.425Z,84.70
2018-07-13T05:06:27.577Z,84.99
2018-07-13T05:07:27.714Z,85.47
2018-07-13T05:08:27.864Z,85.71
2018-07-13T05:09:28.007Z,85.91
2018-07-13T05:10:28.143Z,86.00
2018-07-13T05:11:28.280Z,85.66
2018-07-13T05:12:28.420Z,85.75
2018-07-13T05:13:28.565Z,85.47
2018-07-13T05:14:28.696Z,86.24
2018-07-13T05:15:28.836Z,86.14
2018-07-13T05:16:28.983Z,86.05
2018-07-13T05:17:29.128Z,85.95
2018-07-13T05:18:29.261Z,85.47
2018-07-13T05:19:29.402Z,85.85
2018-07-13T05:20:29.540Z,85.47
2018-07-13T05:21:29.686Z,85.80
2018-07-13T05:22:29.819Z,85.51
2018-07-13T05:23:29.961Z,85.22
2018-07-13T05:24:30.106Z,85.13
2018-07-13T05:25:30.239Z,85.22
2018-07-13T05:26:30.395Z,84.84
2018-07-13T05:27:30.542Z,85.13
2018-07-13T05:28:30.682Z,84.94
2018-07-13T05:29:30.826Z,85.03
2018-07-13T05:30:30.977Z,85.41
2018-07-13T05:31:31.112Z,85.89
2018-07-13T05:32:31.249Z,85.51
2018-07-13T05:33:31.393Z,85.80
2018-07-13T05:34:31.537Z,85.80
2018-07-13T05:35:31.682Z,85.41
2018-07-13T05:36:31.817Z,85.13
2018-07-13T05:37:31.959Z,85.51
2018-07-13T05:38:32.105Z,85.71
2018-07-13T05:39:32.243Z,85.80
2018-07-13T05:40:32.383Z,85.51
2018-07-13T05:41:32.522Z,85.51
2018-07-13T05:42:32.657Z,85.89
2018-07-13T05:43:32.802Z,85.41
2018-07-13T05:44:32.952Z,85.13
2018-07-13T05:45:33.074Z,85.89
2018-07-13T05:46:33.211Z,85.84
2018-07-13T05:47:33.354Z,85.55
2018-07-13T05:48:33.519Z,85.46
2018-07-13T05:49:33.665Z,85.55
2018-07-13T05:50:33.788Z,85.32
2018-07-13T05:51:33.928Z,85.13
2018-07-13T05:52:34.063Z,85.36
2018-07-13T05:53:34.198Z,85.17
2018-07-13T05:54:34.342Z,85.07
2018-07-13T05:55:34.488Z,85.84
2018-07-13T05:56:34.618Z,85.55
2018-07-13T05:57:34.764Z,85.84
2018-07-13T05:58:34.903Z,85.94
2018-07-13T05:59:35.043Z,85.36
2018-07-13T06:00:35.180Z,85.07
2018-07-13T06:01:35.322Z,85.84
2018-07-13T06:02:35.453Z,85.46
2018-07-13T06:03:35.597Z,85.55
2018-07-13T06:04:35.732Z,85.84
2018-07-13T06:05:35.875Z,85.75
2018-07-13T06:06:36.070Z,86.04
2018-07-13T06:07:36.146Z,86.13
2018-07-13T06:08:36.290Z,85.55
2018-07-13T06:09:36.429Z,85.75
2018-07-13T06:10:36.577Z,86.32
2018-07-13T06:11:36.712Z,86.32
2018-07-13T06:12:36.854Z,86.18
2018-07-13T06:13:36.995Z,86.09
2018-07-13T06:14:37.188Z,85.94
2018-07-13T06:15:37.336Z,86.32
2018-07-13T06:16:37.423Z,86.22
2018-07-13T06:17:37.559Z,86.22
2018-07-13T06:18:37.698Z,86.32
2018-07-13T06:19:37.842Z,86.32
2018-07-13T06:20:37.975Z,86.71
2018-07-13T06:21:38.120Z,86.32
2018-07-13T06:22:38.257Z,86.32
2018-07-13T06:23:38.390Z,86.04
2018-07-13T06:24:38.524Z,85.46
2018-07-13T06:25:38.659Z,85.88
2018-07-13T06:26:38.796Z,85.94
2018-07-13T06:27:38.937Z,86.04
2018-07-13T06:28:39.071Z,86.04
2018-07-13T06:29:39.281Z,84.92
2018-07-13T06:30:39.364Z,84.16
2018-07-13T06:31:39.516Z,84.73
2018-07-13T06:32:39.666Z,84.92
2018-07-13T06:33:39.786Z,84.78
2018-07-13T06:34:39.937Z,84.98
2018-07-13T06:35:40.078Z,84.88
2018-07-13T06:36:40.215Z,85.02
2018-07-13T06:37:40.353Z,84.44
2018-07-13T06:38:40.494Z,84.63
2018-07-13T06:39:40.639Z,84.34
2018-07-13T06:40:40.781Z,84.16
2018-07-13T06:41:40.925Z,83.86
2018-07-13T06:42:41.065Z,83.77
2018-07-13T06:43:41.222Z,83.77
2018-07-13T06:44:41.354Z,84.06
2018-07-13T06:45:41.494Z,83.77
2018-07-13T06:46:41.650Z,84.39
2018-07-13T06:47:41.785Z,84.10
2018-07-13T06:48:41.934Z,83.14
2018-07-13T06:49:42.071Z,82.32
2018-07-13T06:50:42.280Z,82.08
2018-07-13T06:51:42.360Z,81.98
2018-07-13T06:52:42.490Z,81.98
2018-07-13T06:53:42.632Z,82.08
2018-07-13T06:54:42.773Z,82.17
2018-07-13T06:55:42.916Z,81.40
2018-07-13T06:56:43.079Z,82.17
2018-07-13T06:57:43.200Z,82.17
2018-07-13T06:58:43.344Z,81.40
2018-07-13T06:59:43.490Z,81.50
2018-07-13T07:00:43.626Z,81.50
2018-07-13T07:01:43.778Z,81.98
2018-07-13T07:02:43.921Z,81.98
2018-07-13T07:03:44.058Z,81.50
2018-07-13T07:04:44.208Z,81.70
2018-07-13T07:05:44.348Z,81.40
2018-07-13T07:06:44.500Z,81.50
2018-07-13T07:07:44.719Z,81.02
2018-07-13T07:08:44.772Z,81.02
2018-07-13T07:09:44.909Z,80.96
2018-07-13T07:10:45.087Z,81.63
2018-07-13T07:11:45.220Z,80.87
2018-07-13T07:12:45.367Z,80.96
2018-07-13T07:13:45.500Z,81.35
2018-07-13T07:14:45.632Z,80.87
2018-07-13T07:15:45.772Z,80.96
2018-07-13T07:16:45.910Z,80.29
2018-07-13T07:17:46.110Z,80.48
2018-07-13T07:18:46.203Z,79.90
2018-07-13T07:19:46.342Z,79.94
2018-07-13T07:20:46.481Z,80.14
2018-07-13T07:21:46.615Z,79.08
2018-07-13T07:22:46.782Z,78.88
2018-07-13T07:23:46.918Z,78.59
2018-07-13T07:24:47.059Z,77.73
2018-07-13T07:25:47.223Z,76.18
2018-07-13T07:26:47.363Z,75.80
2018-07-13T07:27:47.503Z,76.28
2018-07-13T07:28:47.640Z,75.61
2018-07-13T07:29:47.793Z,76.28
2018-07-13T07:30:47.987Z,76.28
2018-07-13T07:31:48.072Z,76.61
2018-07-13T07:32:48.325Z,76.03
2018-07-13T07:33:48.385Z,76.42
2018-07-13T07:34:48.507Z,74.58
2018-07-13T07:35:48.658Z,73.58
2018-07-13T07:36:48.801Z,73.58
2018-07-13T07:37:48.949Z,73.58
2018-07-13T07:38:49.124Z,74.88
2018-07-13T07:39:49.237Z,73.82
2018-07-13T07:40:49.383Z,73.82
2018-07-13T07:41:49.536Z,73.24
2018-07-13T07:42:49.675Z,73.62
2018-07-13T07:43:49.826Z,73.43
2018-07-13T07:44:49.963Z,73.24
2018-07-13T07:45:50.106Z,73.24
2018-07-13T07:46:50.247Z,73.24
2018-07-13T07:47:50.389Z,73.33
2018-07-13T07:48:50.532Z,72.95
2018-07-13T07:49:50.675Z,72.27
2018-07-13T07:50:50.818Z,71.79
2018-07-13T07:51:50.954Z,71.79
2018-07-13T07:52:51.090Z,71.73
2018-07-13T07:53:51.235Z,71.34
2018-07-13T07:54:51.384Z,71.73
2018-07-13T07:55:51.520Z,72.12
2018-07-13T07:56:51.671Z,70.67
2018-07-13T07:57:51.825Z,70.00
2018-07-13T07:58:51.966Z,71.15
2018-07-13T07:59:52.111Z,70.76
2018-07-13T08:00:52.245Z,69.61
2018-07-13T08:01:52.465Z,70.00
2018-07-13T08:02:52.542Z,69.71
2018-07-13T08:03:52.693Z,70.03
2018-07-13T08:04:52.834Z,69.07
2018-07-13T08:05:52.973Z,69.64
2018-07-13T08:06:53.465Z,69.26
2018-07-13T08:07:53.264Z,69.26
2018-07-13T08:08:53.414Z,67.23
2018-07-13T08:09:53.624Z,67.33
2018-07-13T08:10:53.641Z,67.62
2018-07-13T08:11:53.791Z,67.91
2018-07-13T08:12:53.960Z,67.71
2018-07-13T08:13:54.162Z,67.91
2018-07-13T08:14:54.213Z,66.56
2018-07-13T08:15:54.364Z,66.66
2018-07-13T08:16:54.501Z,65.34
2018-07-13T08:17:54.646Z,65.78
2018-07-13T08:18:54.802Z,66.20
2018-07-13T08:19:54.920Z,66.08
2018-07-13T08:20:55.062Z,65.78
2018-07-13T08:21:55.198Z,66.56
2018-07-13T08:22:55.333Z,66.56
2018-07-13T08:23:55.507Z,66.40
2018-07-13T08:24:55.631Z,65.53
2018-07-13T08:25:55.778Z,65.72
2018-07-13T08:26:55.916Z,65.24
2018-07-13T08:27:56.075Z,65.24
2018-07-13T08:28:56.216Z,65.91
2018-07-13T08:29:56.354Z,65.34
2018-07-13T08:30:56.500Z,66.01
2018-07-13T08:31:56.645Z,65.72
2018-07-13T08:32:56.790Z,64.95
2018-07-13T08:33:56.927Z,63.98
2018-07-13T08:34:57.082Z,63.79
2018-07-13T08:35:57.904Z,63.24
2018-07-13T08:36:57.349Z,62.82
2018-07-13T08:37:57.521Z,63.82
2018-07-13T08:38:57.655Z,63.63
2018-07-13T08:39:57.801Z,64.01
2018-07-13T08:40:57.942Z,63.73
2018-07-13T08:41:58.091Z,62.76
2018-07-13T08:42:58.227Z,63.24
2018-07-13T08:43:58.381Z,63.82
2018-07-13T08:44:58.538Z,62.76
2018-07-13T08:45:58.719Z,62.47
2018-07-13T08:46:58.816Z,62.37
2018-07-13T08:47:58.958Z,61.73
2018-07-13T08:48:59.107Z,62.02
2018-07-13T08:49:59.235Z,61.83
2018-07-13T08:50:59.373Z,61.05
2018-07-13T08:51:59.517Z,59.89
2018-07-13T08:52:59.659Z,60.86
2018-07-13T08:53:59.798Z,60.76
2018-07-13T08:54:59.939Z,60.57
2018-07-13T08:56:00.077Z,59.89
2018-07-13T08:57:00.214Z,60.02
2018-07-13T08:58:00.365Z,60.99
2018-07-13T08:59:00.538Z,60.79
2018-07-13T09:00:00.684Z,60.31
2018-07-13T09:01:00.835Z,60.21
2018-07-13T09:02:00.982Z,59.63
2018-07-13T09:03:01.116Z,59.44
2018-07-13T09:04:01.274Z,59.05
2018-07-13T09:05:01.407Z,57.51
2018-07-13T09:06:01.554Z,58.09
2018-07-13T09:07:01.688Z,57.99
2018-07-13T09:08:01.831Z,57.99
2018-07-13T09:09:01.974Z,57.60
2018-07-13T09:10:02.117Z,56.73
2018-07-13T09:11:02.258Z,57.03
2018-07-13T09:12:02.400Z,57.31
2018-07-13T09:13:02.623Z,56.54
2018-07-13T09:14:02.685Z,58.09
2018-07-13T09:15:02.829Z,56.35
2018-07-13T09:16:02.974Z,56.05
2018-07-13T09:17:03.117Z,56.45
2018-07-13T09:18:03.325Z,56.63
2018-07-13T09:19:03.342Z,56.73
2018-07-13T09:20:03.487Z,56.28
2018-07-13T09:21:04.412Z,55.21
2018-07-13T09:22:03.896Z,54.63
2018-07-13T09:23:03.913Z,53.38
2018-07-13T09:24:04.113Z,53.57
2018-07-13T09:25:04.203Z,53.28
2018-07-13T09:26:04.360Z,52.99
2018-07-13T09:27:04.494Z,52.82
2018-07-13T09:28:04.641Z,53.11
2018-07-13T09:29:04.810Z,53.11
2018-07-13T09:30:04.974Z,53.21
2018-07-13T09:31:05.148Z,52.53
2018-07-13T09:32:05.254Z,53.02
2018-07-13T09:33:05.973Z,51.76
2018-07-13T09:34:05.600Z,52.05
2018-07-13T09:35:05.759Z,51.37
2018-07-13T09:36:05.910Z,51.28
2018-07-13T09:37:06.073Z,51.18
2018-07-13T09:38:06.297Z,51.18
2018-07-13T09:39:06.363Z,51.95
2018-07-13T09:40:06.514Z,52.44
2018-07-13T09:41:06.681Z,52.14
2018-07-13T09:42:06.791Z,50.40
2018-07-13T09:43:06.938Z,50.31
2018-07-13T09:44:07.079Z,50.40
2018-07-13T09:45:07.294Z,52.05
2018-07-13T09:46:07.303Z,52.14
2018-07-13T09:47:07.451Z,52.34
2018-07-13T09:48:07.610Z,51.37
2018-07-13T09:49:07.751Z,52.34
2018-07-13T09:50:07.888Z,52.14
2018-07-13T09:51:08.042Z,52.05
2018-07-13T09:52:08.184Z,50.31
2018-07-13T09:53:08.328Z,50.52
2018-07-13T09:54:08.708Z,50.52
2018-07-13T09:56:40.469Z,48.49
2018-07-13T09:57:40.618Z,48.81
2018-07-13T09:58:40.754Z,49.39
2018-07-13T09:59:40.897Z,49.00
2018-07-13T10:00:41.088Z,49.29
2018-07-13T10:01:41.178Z,49.39
2018-07-13T10:02:41.322Z,48.22
2018-07-13T10:03:41.457Z,49.00
2018-07-13T10:04:41.603Z,48.81
2018-07-13T10:05:41.755Z,48.52
2018-07-13T10:06:41.901Z,48.13
2018-07-13T10:07:42.046Z,49.10
2018-07-13T10:08:42.192Z,49.00
2018-07-13T10:09:42.342Z,49.19
2018-07-13T10:10:42.472Z,48.42
2018-07-13T10:11:42.614Z,48.03
2018-07-13T10:12:42.757Z,48.13
2018-07-13T10:13:42.899Z,48.13
2018-07-13T10:14:43.043Z,48.15
2018-07-13T10:15:43.184Z,47.38
2018-07-13T10:16:43.330Z,47.28
2018-07-13T10:17:43.476Z,47.09
2018-07-13T10:18:43.619Z,46.89
2018-07-13T10:19:43.833Z,46.51
2018-07-13T10:20:43.859Z,46.80
2018-07-13T10:21:43.993Z,46.99
2018-07-13T10:22:44.172Z,46.51
2018-07-13T10:23:44.308Z,46.53
2018-07-13T10:24:44.459Z,44.98
2018-07-13T10:25:44.603Z,45.27
2018-07-13T10:26:44.792Z,46.04
2018-07-13T10:27:44.932Z,46.24
2018-07-13T10:28:45.097Z,44.49
2018-07-13T10:29:45.242Z,44.88
2018-07-13T10:30:45.409Z,44.10
2018-07-13T10:31:45.565Z,43.26
2018-07-13T10:32:45.708Z,44.98
2018-07-13T10:33:45.876Z,45.87
2018-07-13T10:34:46.017Z,45.78
2018-07-13T10:35:46.151Z,44.71
2018-07-13T10:36:46.307Z,44.42
2018-07-13T10:37:46.444Z,44.51
2018-07-13T10:38:46.593Z,45.58
2018-07-13T10:39:46.772Z,45.39
2018-07-13T10:40:46.895Z,45.29
2018-07-13T10:41:47.045Z,45.87
2018-07-13T10:42:47.204Z,45.97
2018-07-13T10:43:47.345Z,45.39
2018-07-13T10:44:47.490Z,45.20
2018-07-13T10:45:47.647Z,45.10
2018-07-13T10:46:47.832Z,44.23
2018-07-13T10:47:48.052Z,44.03
2018-07-13T10:48:48.151Z,43.35
2018-07-13T10:49:48.289Z,44.01
2018-07-13T10:50:48.433Z,44.42
2018-07-13T10:51:48.592Z,44.42
2018-07-13T10:52:48.816Z,45.20
2018-07-13T10:53:48.893Z,44.81
2018-07-13T10:54:49.032Z,45.39
2018-07-13T10:55:49.185Z,44.92
2018-07-13T10:56:49.329Z,46.09
2018-07-13T10:57:49.477Z,44.54
2018-07-13T10:58:49.626Z,44.24
2018-07-13T10:59:49.771Z,44.15
2018-07-13T11:00:49.915Z,44.44
2018-07-13T11:01:50.056Z,44.37
2018-07-13T11:02:50.218Z,44.27
2018-07-13T11:03:50.343Z,43.30
2018-07-13T11:04:50.487Z,44.15
2018-07-13T11:05:50.632Z,43.37
2018-07-13T11:06:50.777Z,43.86
2018-07-13T11:07:50.921Z,43.35
2018-07-13T11:08:51.067Z,43.84
2018-07-13T11:09:51.209Z,43.35
2018-07-13T11:10:51.360Z,43.64
2018-07-13T11:11:51.504Z,44.13
2018-07-13T11:12:51.648Z,43.45
2018-07-13T11:13:51.916Z,43.54
2018-07-13T11:14:51.941Z,44.71
2018-07-13T11:15:52.082Z,44.61
2018-07-13T11:16:52.225Z,44.73
2018-07-13T11:17:52.369Z,44.42
2018-07-13T11:18:52.513Z,44.92
2018-07-13T11:19:52.657Z,44.92
2018-07-13T11:20:52.804Z,43.37
2018-07-13T11:21:52.957Z,43.10
2018-07-13T11:22:53.120Z,43.01
2018-07-13T11:23:53.265Z,42.81
2018-07-13T11:24:53.537Z,43.01
2018-07-13T11:25:53.589Z,42.43
2018-07-13T11:26:53.737Z,42.91
2018-07-13T11:27:53.880Z,42.23
2018-07-13T11:28:54.044Z,43.20
2018-07-13T11:29:54.191Z,42.81
2018-07-13T11:30:54.332Z,42.21
2018-07-13T11:31:54.495Z,42.50
2018-07-13T11:32:54.644Z,44.37
2018-07-13T11:33:54.787Z,42.50
2018-07-13T11:34:54.929Z,42.81
2018-07-13T11:35:55.082Z,42.91
2018-07-13T11:36:55.261Z,43.01
2018-07-13T11:37:55.364Z,43.01
2018-07-13T11:38:55.541Z,43.51
2018-07-13T11:39:55.692Z,42.15
2018-07-13T11:40:55.787Z,41.57
2018-07-13T11:41:55.929Z,41.57
2018-07-13T11:42:56.069Z,42.93
2018-07-13T11:43:56.232Z,43.12
2018-07-13T11:44:56.375Z,42.18
2018-07-13T11:45:56.513Z,41.59
2018-07-13T11:46:56.677Z,41.39
2018-07-13T11:47:56.823Z,41.49
2018-07-13T11:48:56.956Z,40.91
2018-07-13T11:49:57.157Z,40.52
2018-07-13T11:50:57.274Z,39.96
2018-07-13T11:51:57.417Z,40.34
2018-07-13T11:52:57.580Z,39.67
2018-07-13T11:53:57.724Z,39.08
2018-07-13T11:54:57.877Z,37.92
2018-07-13T11:55:58.022Z,38.01
2018-07-13T11:56:58.164Z,38.98
2018-07-13T11:57:58.313Z,39.18
2018-07-13T11:58:58.457Z,40.27
2018-07-13T11:59:58.647Z,40.47
2018-07-13T12:00:58.748Z,39.39
2018-07-13T12:01:58.901Z,39.78
2018-07-13T12:02:59.040Z,41.14
2018-07-13T12:03:59.184Z,40.66
2018-07-13T12:04:59.332Z,39.49
2018-07-13T12:05:59.473Z,39.69
2018-07-13T12:06:59.625Z,39.59
2018-07-13T12:07:59.769Z,39.59
2018-07-13T12:08:59.916Z,39.78
2018-07-13T12:10:00.063Z,39.39
2018-07-13T12:11:00.204Z,40.17
2018-07-13T12:12:00.348Z,39.69
2018-07-13T12:13:00.494Z,38.42
2018-07-13T12:14:00.643Z,38.81
2018-07-13T12:15:00.789Z,39.10
2018-07-13T12:16:00.932Z,38.81
2018-07-13T12:17:01.073Z,38.50
2018-07-13T12:18:01.226Z,38.91
2018-07-13T12:19:01.370Z,38.71
2018-07-13T12:20:01.523Z,39.00
2018-07-13T12:21:01.665Z,39.39
2018-07-13T12:22:01.815Z,39.20
2018-07-13T12:23:01.954Z,39.69
2018-07-13T12:24:02.102Z,39.39
2018-07-13T12:25:02.251Z,39.00
2018-07-13T12:26:02.393Z,39.10
2018-07-13T12:27:02.576Z,38.81
2018-07-13T12:28:02.688Z,39.69
2018-07-13T12:29:02.845Z,39.69
2018-07-13T12:30:02.984Z,39.37
2018-07-13T12:31:03.128Z,39.08
2018-07-13T12:32:03.285Z,39.67
2018-07-13T12:33:03.456Z,39.76
2018-07-13T12:34:03.571Z,39.47
2018-07-13T12:35:03.717Z,39.96
2018-07-13T12:36:03.862Z,40.64
2018-07-13T12:37:04.031Z,41.61
2018-07-13T12:38:04.171Z,40.15
2018-07-13T12:39:04.315Z,40.06
2018-07-13T12:40:04.488Z,40.15
2018-07-13T12:41:04.636Z,40.44
2018-07-13T12:42:04.781Z,40.34
2018-07-13T12:43:04.926Z,39.67
2018-07-13T12:44:05.095Z,40.34
2018-07-13T12:45:05.239Z,40.54
2018-07-13T12:46:05.455Z,39.86
2018-07-13T12:47:05.564Z,41.71
2018-07-13T12:48:05.707Z,40.37
2018-07-13T12:49:05.862Z,39.49
2018-07-13T12:50:06.008Z,38.91
2018-07-13T12:51:06.148Z,40.15
2018-07-13T12:52:06.364Z,39.20
2018-07-13T12:53:06.436Z,40.08
2018-07-13T12:54:06.750Z,41.44
2018-07-13T12:55:06.731Z,40.85
2018-07-13T12:56:06.883Z,39.98